sensor_id;sensor_type;location;lat;lon;timestamp;pressure;altitude;pressure_sealevel;temperature;humidity
12182;BME280;6154;51.550;12.138;2022-10-16T00:01:37;100123.31;;;21.59;57.06
12182;BME280;6154;51.550;12.138;2022-10-16T00:04:06;100122.94;;;21.54;57.23
12182;BME280;6154;51.550;12.138;2022-10-16T00:06:35;100119.72;;;21.50;57.37
12182;BME280;6154;51.550;12.138;2022-10-16T00:09:05;100121.75;;;21.48;57.52
12182;BME280;6154;51.550;12.138;2022-10-16T00:11:35;100123.22;;;21.43;57.48
12182;BME280;6154;51.550;12.138;2022-10-16T00:14:08;100122.72;;;21.39;57.78
12182;BME280;6154;51.550;12.138;2022-10-16T00:16:38;100129.78;;;21.40;57.75
12182;BME280;6154;51.550;12.138;2022-10-16T00:19:06;100126.09;;;21.41;57.63
12182;BME280;6154;51.550;12.138;2022-10-16T00:21:34;100131.31;;;21.43;57.69
12182;BME280;6154;51.550;12.138;2022-10-16T00:24:23;100141.06;;;21.44;58.01
12182;BME280;6154;51.550;12.138;2022-10-16T00:26:51;100144.47;;;21.46;58.42
12182;BME280;6154;51.550;12.138;2022-10-16T00:29:20;100146.03;;;21.57;57.96
12182;BME280;6154;51.550;12.138;2022-10-16T00:31:48;100150.28;;;21.67;57.69
12182;BME280;6154;51.550;12.138;2022-10-16T00:34:16;100159.37;;;21.74;57.51
12182;BME280;6154;51.550;12.138;2022-10-16T00:36:45;100164.78;;;21.83;57.42
12182;BME280;6154;51.550;12.138;2022-10-16T00:39:13;100175.09;;;21.87;57.46
12182;BME280;6154;51.550;12.138;2022-10-16T00:41:43;100170.38;;;21.89;57.40
12182;BME280;6154;51.550;12.138;2022-10-16T00:44:46;100172.75;;;21.92;57.47
12182;BME280;6154;51.550;12.138;2022-10-16T00:47:21;100163.34;;;21.96;58.41
12182;BME280;6154;51.550;12.138;2022-10-16T00:49:53;100160.44;;;21.90;57.59
12182;BME280;6154;51.550;12.138;2022-10-16T00:52:24;100156.91;;;21.89;57.65
12182;BME280;6154;51.550;12.138;2022-10-16T00:54:54;100158.25;;;21.85;57.88
12182;BME280;6154;51.550;12.138;2022-10-16T00:57:24;100155.37;;;21.78;58.37
12182;BME280;6154;51.550;12.138;2022-10-16T01:02:21;100155.53;;;21.77;57.89
12182;BME280;6154;51.550;12.138;2022-10-16T01:04:52;100150.13;;;21.77;57.60
12182;BME280;6154;51.550;12.138;2022-10-16T01:07:30;100152.00;;;21.76;57.43
12182;BME280;6154;51.550;12.138;2022-10-16T01:10:07;100143.19;;;21.74;57.62
12182;BME280;6154;51.550;12.138;2022-10-16T01:12:42;100155.16;;;21.72;57.75
12182;BME280;6154;51.550;12.138;2022-10-16T01:15:17;100151.12;;;21.68;57.57
12182;BME280;6154;51.550;12.138;2022-10-16T01:17:53;100152.59;;;21.62;57.37
12182;BME280;6154;51.550;12.138;2022-10-16T01:20:27;100158.47;;;21.58;57.39
12182;BME280;6154;51.550;12.138;2022-10-16T01:23:05;100156.25;;;21.53;57.63
12182;BME280;6154;51.550;12.138;2022-10-16T01:25:52;100159.28;;;21.50;57.89
12182;BME280;6154;51.550;12.138;2022-10-16T01:28:28;100156.91;;;21.47;58.20
12182;BME280;6154;51.550;12.138;2022-10-16T01:30:59;100162.44;;;21.37;58.00
12182;BME280;6154;51.550;12.138;2022-10-16T01:33:34;100173.31;;;21.28;58.07
12182;BME280;6154;51.550;12.138;2022-10-16T01:36:10;100168.53;;;21.21;58.04
12182;BME280;6154;51.550;12.138;2022-10-16T01:38:40;100175.25;;;21.17;57.93
12182;BME280;6154;51.550;12.138;2022-10-16T01:41:11;100181.09;;;21.13;57.56
12182;BME280;6154;51.550;12.138;2022-10-16T01:43:45;100181.56;;;21.08;57.71
12182;BME280;6154;51.550;12.138;2022-10-16T01:46:17;100188.12;;;21.06;57.59
12182;BME280;6154;51.550;12.138;2022-10-16T01:48:47;100194.28;;;20.98;57.59
12182;BME280;6154;51.550;12.138;2022-10-16T01:51:17;100200.00;;;20.95;57.64
12182;BME280;6154;51.550;12.138;2022-10-16T01:53:49;100194.91;;;20.92;57.94
12182;BME280;6154;51.550;12.138;2022-10-16T01:56:21;100203.97;;;20.91;58.24
12182;BME280;6154;51.550;12.138;2022-10-16T01:58:54;100197.91;;;20.89;58.35
12182;BME280;6154;51.550;12.138;2022-10-16T02:01:26;100185.81;;;20.93;58.67
12182;BME280;6154;51.550;12.138;2022-10-16T02:03:57;100175.59;;;20.97;58.11
12182;BME280;6154;51.550;12.138;2022-10-16T02:06:26;100167.69;;;20.95;58.36
12182;BME280;6154;51.550;12.138;2022-10-16T02:08:56;100174.75;;;20.96;58.34
12182;BME280;6154;51.550;12.138;2022-10-16T02:11:25;100175.28;;;21.00;58.24
12182;BME280;6154;51.550;12.138;2022-10-16T02:13:59;100172.44;;;21.01;58.17
12182;BME280;6154;51.550;12.138;2022-10-16T02:16:33;100168.72;;;21.02;58.95
12182;BME280;6154;51.550;12.138;2022-10-16T02:19:02;100183.88;;;21.03;58.81
12182;BME280;6154;51.550;12.138;2022-10-16T02:21:38;100187.28;;;21.05;58.32
12182;BME280;6154;51.550;12.138;2022-10-16T02:24:13;100190.31;;;21.10;59.04
12182;BME280;6154;51.550;12.138;2022-10-16T02:26:49;100190.16;;;21.12;58.92
12182;BME280;6154;51.550;12.138;2022-10-16T02:29:23;100196.37;;;21.12;58.71
12182;BME280;6154;51.550;12.138;2022-10-16T02:31:56;100200.09;;;21.11;58.79
12182;BME280;6154;51.550;12.138;2022-10-16T02:34:28;100202.94;;;21.10;58.55
12182;BME280;6154;51.550;12.138;2022-10-16T02:36:58;100200.41;;;21.08;58.84
12182;BME280;6154;51.550;12.138;2022-10-16T02:39:28;100198.03;;;21.05;58.78
12182;BME280;6154;51.550;12.138;2022-10-16T02:41:57;100201.34;;;20.99;58.79
12182;BME280;6154;51.550;12.138;2022-10-16T02:44:27;100203.37;;;20.97;59.01
12182;BME280;6154;51.550;12.138;2022-10-16T02:46:55;100205.38;;;20.95;59.35
12182;BME280;6154;51.550;12.138;2022-10-16T02:49:23;100210.75;;;20.95;59.33
12182;BME280;6154;51.550;12.138;2022-10-16T02:51:52;100197.97;;;20.97;59.38
12182;BME280;6154;51.550;12.138;2022-10-16T02:54:20;100200.50;;;20.99;59.46
12182;BME280;6154;51.550;12.138;2022-10-16T02:56:48;100200.66;;;20.97;59.61
12182;BME280;6154;51.550;12.138;2022-10-16T02:59:16;100215.81;;;20.98;59.54
12182;BME280;6154;51.550;12.138;2022-10-16T03:01:46;100212.78;;;21.01;59.37
12182;BME280;6154;51.550;12.138;2022-10-16T03:04:14;100217.66;;;20.98;59.55
12182;BME280;6154;51.550;12.138;2022-10-16T03:06:42;100213.13;;;20.98;59.39
12182;BME280;6154;51.550;12.138;2022-10-16T03:09:11;100214.66;;;21.01;59.04
12182;BME280;6154;51.550;12.138;2022-10-16T03:11:39;100221.88;;;21.00;58.80
12182;BME280;6154;51.550;12.138;2022-10-16T03:14:07;100221.72;;;21.02;58.96
12182;BME280;6154;51.550;12.138;2022-10-16T03:16:35;100228.62;;;21.04;58.97
12182;BME280;6154;51.550;12.138;2022-10-16T03:19:05;100232.31;;;21.03;58.91
12182;BME280;6154;51.550;12.138;2022-10-16T03:21:33;100232.19;;;21.05;58.93
12182;BME280;6154;51.550;12.138;2022-10-16T03:24:02;100229.63;;;21.03;58.89
12182;BME280;6154;51.550;12.138;2022-10-16T03:26:30;100231.31;;;21.04;58.80
12182;BME280;6154;51.550;12.138;2022-10-16T03:28:58;100230.63;;;21.02;58.69
12182;BME280;6154;51.550;12.138;2022-10-16T03:31:27;100234.31;;;21.01;58.76
12182;BME280;6154;51.550;12.138;2022-10-16T03:33:55;100233.66;;;20.99;58.76
12182;BME280;6154;51.550;12.138;2022-10-16T03:36:25;100236.66;;;20.96;58.72
12182;BME280;6154;51.550;12.138;2022-10-16T03:38:53;100235.09;;;20.93;58.74
12182;BME280;6154;51.550;12.138;2022-10-16T03:41:21;100237.25;;;20.90;58.79
12182;BME280;6154;51.550;12.138;2022-10-16T03:43:50;100226.66;;;20.88;58.70
12182;BME280;6154;51.550;12.138;2022-10-16T03:46:18;100219.38;;;20.81;58.77
12182;BME280;6154;51.550;12.138;2022-10-16T03:48:46;100217.53;;;20.81;58.72
12182;BME280;6154;51.550;12.138;2022-10-16T03:51:15;100220.53;;;20.78;58.62
12182;BME280;6154;51.550;12.138;2022-10-16T03:53:44;100218.00;;;20.77;58.50
12182;BME280;6154;51.550;12.138;2022-10-16T03:56:12;100215.31;;;20.77;58.52
12182;BME280;6154;51.550;12.138;2022-10-16T03:58:41;100213.75;;;20.74;58.47
12182;BME280;6154;51.550;12.138;2022-10-16T04:01:09;100232.75;;;20.73;58.60
12182;BME280;6154;51.550;12.138;2022-10-16T04:03:37;100232.22;;;20.69;58.43
12182;BME280;6154;51.550;12.138;2022-10-16T04:06:06;100225.16;;;20.68;58.82
12182;BME280;6154;51.550;12.138;2022-10-16T04:08:34;100230.00;;;20.64;58.91
12182;BME280;6154;51.550;12.138;2022-10-16T04:11:05;100226.91;;;20.59;58.90
12182;BME280;6154;51.550;12.138;2022-10-16T04:13:33;100230.59;;;20.58;58.85
12182;BME280;6154;51.550;12.138;2022-10-16T04:16:01;100241.34;;;20.58;58.85
12182;BME280;6154;51.550;12.138;2022-10-16T04:18:30;100226.22;;;20.57;58.93
12182;BME280;6154;51.550;12.138;2022-10-16T04:21:02;100233.72;;;20.54;58.87
12182;BME280;6154;51.550;12.138;2022-10-16T04:23:31;100249.19;;;20.52;58.91
12182;BME280;6154;51.550;12.138;2022-10-16T04:25:59;100258.81;;;20.54;58.87
12182;BME280;6154;51.550;12.138;2022-10-16T04:28:29;100260.63;;;20.54;59.28
12182;BME280;6154;51.550;12.138;2022-10-16T04:30:57;100260.50;;;20.55;59.71
12182;BME280;6154;51.550;12.138;2022-10-16T04:33:25;100252.28;;;20.57;59.60
12182;BME280;6154;51.550;12.138;2022-10-16T04:35:57;100250.78;;;20.62;59.45
12182;BME280;6154;51.550;12.138;2022-10-16T04:38:26;100248.66;;;20.66;59.96
12182;BME280;6154;51.550;12.138;2022-10-16T04:40:55;100256.75;;;20.66;59.60
12182;BME280;6154;51.550;12.138;2022-10-16T04:43:23;100258.25;;;20.69;59.49
12182;BME280;6154;51.550;12.138;2022-10-16T04:45:53;100261.13;;;20.67;59.88
12182;BME280;6154;51.550;12.138;2022-10-16T04:48:22;100267.66;;;20.64;60.22
12182;BME280;6154;51.550;12.138;2022-10-16T04:50:50;100265.34;;;20.70;60.01
12182;BME280;6154;51.550;12.138;2022-10-16T04:53:21;100277.47;;;20.74;59.92
12182;BME280;6154;51.550;12.138;2022-10-16T04:55:50;100283.56;;;20.76;59.82
12182;BME280;6154;51.550;12.138;2022-10-16T04:58:18;100283.94;;;20.81;59.62
12182;BME280;6154;51.550;12.138;2022-10-16T05:00:46;100286.62;;;20.81;59.51
12182;BME280;6154;51.550;12.138;2022-10-16T05:03:16;100288.31;;;20.82;59.40
12182;BME280;6154;51.550;12.138;2022-10-16T05:05:45;100289.16;;;20.82;59.39
12182;BME280;6154;51.550;12.138;2022-10-16T05:08:15;100291.00;;;20.82;59.18
12182;BME280;6154;51.550;12.138;2022-10-16T05:10:44;100286.62;;;20.81;59.27
12182;BME280;6154;51.550;12.138;2022-10-16T05:13:12;100303.44;;;20.83;59.15
12182;BME280;6154;51.550;12.138;2022-10-16T05:15:41;100297.38;;;20.81;59.32
12182;BME280;6154;51.550;12.138;2022-10-16T05:18:09;100301.75;;;20.82;59.29
12182;BME280;6154;51.550;12.138;2022-10-16T05:20:38;100307.44;;;20.79;59.41
12182;BME280;6154;51.550;12.138;2022-10-16T05:23:07;100304.75;;;20.79;59.31
12182;BME280;6154;51.550;12.138;2022-10-16T05:25:37;100311.84;;;20.80;59.33
12182;BME280;6154;51.550;12.138;2022-10-16T05:28:05;100312.69;;;20.80;59.52
12182;BME280;6154;51.550;12.138;2022-10-16T05:30:33;100301.75;;;20.82;59.52
12182;BME280;6154;51.550;12.138;2022-10-16T05:33:02;100307.81;;;20.84;59.46
12182;BME280;6154;51.550;12.138;2022-10-16T05:35:30;100303.16;;;20.86;59.31
12182;BME280;6154;51.550;12.138;2022-10-16T05:38:00;100308.22;;;20.89;59.48
12182;BME280;6154;51.550;12.138;2022-10-16T05:40:28;100296.94;;;20.85;59.77
12182;BME280;6154;51.550;12.138;2022-10-16T05:42:56;100311.91;;;20.88;59.52
12182;BME280;6154;51.550;12.138;2022-10-16T05:45:25;100316.13;;;20.90;59.48
12182;BME280;6154;51.550;12.138;2022-10-16T05:47:53;100319.66;;;20.91;59.63
12182;BME280;6154;51.550;12.138;2022-10-16T05:50:21;100324.06;;;20.92;59.63
12182;BME280;6154;51.550;12.138;2022-10-16T05:52:49;100332.81;;;20.94;59.61
12182;BME280;6154;51.550;12.138;2022-10-16T05:55:19;100331.69;;;20.97;59.63
12182;BME280;6154;51.550;12.138;2022-10-16T05:57:47;100333.38;;;20.98;59.51
12182;BME280;6154;51.550;12.138;2022-10-16T06:00:16;100329.50;;;21.00;59.68
12182;BME280;6154;51.550;12.138;2022-10-16T06:02:44;100332.88;;;21.02;59.43
12182;BME280;6154;51.550;12.138;2022-10-16T06:05:13;100336.13;;;21.06;59.25
12182;BME280;6154;51.550;12.138;2022-10-16T06:07:41;100337.81;;;21.07;59.28
12182;BME280;6154;51.550;12.138;2022-10-16T06:10:09;100343.75;;;21.10;59.37
12182;BME280;6154;51.550;12.138;2022-10-16T06:12:39;100326.59;;;21.11;59.54
12182;BME280;6154;51.550;12.138;2022-10-16T06:15:08;100319.19;;;21.13;59.45
12182;BME280;6154;51.550;12.138;2022-10-16T06:17:37;100332.22;;;21.18;59.50
12182;BME280;6154;51.550;12.138;2022-10-16T06:20:20;100327.34;;;21.21;59.32
12182;BME280;6154;51.550;12.138;2022-10-16T06:22:49;100333.16;;;21.27;59.38
12182;BME280;6154;51.550;12.138;2022-10-16T06:25:17;100334.53;;;21.31;59.55
12182;BME280;6154;51.550;12.138;2022-10-16T06:27:57;100348.50;;;21.34;59.39
12182;BME280;6154;51.550;12.138;2022-10-16T06:30:27;100349.22;;;21.36;59.34
12182;BME280;6154;51.550;12.138;2022-10-16T06:32:55;100344.84;;;21.35;59.24
12182;BME280;6154;51.550;12.138;2022-10-16T06:35:23;100347.66;;;21.34;59.16
12182;BME280;6154;51.550;12.138;2022-10-16T06:37:52;100361.12;;;21.34;59.47
12182;BME280;6154;51.550;12.138;2022-10-16T06:40:21;100355.63;;;21.35;59.36
12182;BME280;6154;51.550;12.138;2022-10-16T06:42:50;100363.53;;;21.37;59.38
12182;BME280;6154;51.550;12.138;2022-10-16T06:45:19;100358.81;;;21.39;59.37
12182;BME280;6154;51.550;12.138;2022-10-16T06:47:48;100362.87;;;21.43;59.26
12182;BME280;6154;51.550;12.138;2022-10-16T06:50:16;100364.12;;;21.48;59.19
12182;BME280;6154;51.550;12.138;2022-10-16T06:52:45;100354.88;;;21.51;59.39
12182;BME280;6154;51.550;12.138;2022-10-16T06:55:13;100357.81;;;21.58;59.34
12182;BME280;6154;51.550;12.138;2022-10-16T06:57:42;100359.72;;;21.65;59.58
12182;BME280;6154;51.550;12.138;2022-10-16T07:00:12;100345.75;;;21.70;59.26
12182;BME280;6154;51.550;12.138;2022-10-16T07:02:41;100341.53;;;21.67;59.21
12182;BME280;6154;51.550;12.138;2022-10-16T07:05:09;100331.97;;;21.73;59.27
12182;BME280;6154;51.550;12.138;2022-10-16T07:07:40;100326.13;;;21.77;59.01
12182;BME280;6154;51.550;12.138;2022-10-16T07:10:08;100344.31;;;21.84;59.00
12182;BME280;6154;51.550;12.138;2022-10-16T07:12:37;100348.06;;;21.91;59.07
12182;BME280;6154;51.550;12.138;2022-10-16T07:15:06;100347.75;;;21.94;58.91
12182;BME280;6154;51.550;12.138;2022-10-16T07:17:35;100340.88;;;21.99;58.94
12182;BME280;6154;51.550;12.138;2022-10-16T07:20:05;100337.69;;;22.04;59.18
12182;BME280;6154;51.550;12.138;2022-10-16T07:22:34;100359.69;;;22.09;59.21
12182;BME280;6154;51.550;12.138;2022-10-16T07:25:03;100400.84;;;22.19;58.89
12182;BME280;6154;51.550;12.138;2022-10-16T07:27:32;100415.56;;;22.25;58.93
12182;BME280;6154;51.550;12.138;2022-10-16T07:30:01;100438.47;;;22.29;58.83
12182;BME280;6154;51.550;12.138;2022-10-16T07:32:36;100442.88;;;22.30;59.35
12182;BME280;6154;51.550;12.138;2022-10-16T07:35:05;100442.25;;;22.36;59.24
12182;BME280;6154;51.550;12.138;2022-10-16T07:37:37;100440.91;;;22.40;58.83
12182;BME280;6154;51.550;12.138;2022-10-16T07:40:17;100436.41;;;22.49;58.60
12182;BME280;6154;51.550;12.138;2022-10-16T07:42:57;100430.50;;;22.53;58.69
12182;BME280;6154;51.550;12.138;2022-10-16T07:45:25;100429.69;;;22.61;59.07
12182;BME280;6154;51.550;12.138;2022-10-16T07:47:55;100447.09;;;22.66;59.18
12182;BME280;6154;51.550;12.138;2022-10-16T07:50:24;100459.97;;;22.81;58.86
12182;BME280;6154;51.550;12.138;2022-10-16T07:52:52;100458.69;;;22.93;58.82
12182;BME280;6154;51.550;12.138;2022-10-16T07:55:20;100448.59;;;23.03;58.89
12182;BME280;6154;51.550;12.138;2022-10-16T07:57:49;100449.31;;;23.13;58.67
12182;BME280;6154;51.550;12.138;2022-10-16T08:00:17;100454.56;;;23.23;58.81
12182;BME280;6154;51.550;12.138;2022-10-16T08:02:46;100463.53;;;23.32;58.67
12182;BME280;6154;51.550;12.138;2022-10-16T08:05:15;100459.19;;;23.47;58.32
12182;BME280;6154;51.550;12.138;2022-10-16T08:07:48;100455.47;;;23.56;58.37
12182;BME280;6154;51.550;12.138;2022-10-16T08:10:18;100461.59;;;23.66;58.11
12182;BME280;6154;51.550;12.138;2022-10-16T08:12:46;100460.59;;;23.75;58.12
12182;BME280;6154;51.550;12.138;2022-10-16T08:15:14;100460.41;;;23.85;58.20
12182;BME280;6154;51.550;12.138;2022-10-16T08:17:43;100466.50;;;23.95;57.93
12182;BME280;6154;51.550;12.138;2022-10-16T08:20:11;100467.31;;;24.04;57.79
12182;BME280;6154;51.550;12.138;2022-10-16T08:22:41;100472.72;;;24.12;57.86
12182;BME280;6154;51.550;12.138;2022-10-16T08:25:10;100490.63;;;24.21;57.89
12182;BME280;6154;51.550;12.138;2022-10-16T08:27:38;100489.13;;;24.19;57.88
12182;BME280;6154;51.550;12.138;2022-10-16T08:30:08;100504.66;;;24.33;57.64
12182;BME280;6154;51.550;12.138;2022-10-16T08:32:37;100507.72;;;24.38;57.54
12182;BME280;6154;51.550;12.138;2022-10-16T08:35:05;100509.03;;;24.58;57.59
12182;BME280;6154;51.550;12.138;2022-10-16T08:37:34;100512.34;;;24.77;57.55
12182;BME280;6154;51.550;12.138;2022-10-16T08:40:05;100502.69;;;24.74;57.04
12182;BME280;6154;51.550;12.138;2022-10-16T08:42:44;100500.00;;;24.74;56.84
12182;BME280;6154;51.550;12.138;2022-10-16T08:45:25;100497.44;;;24.81;56.53
12182;BME280;6154;51.550;12.138;2022-10-16T08:48:09;100490.66;;;24.85;56.37
12182;BME280;6154;51.550;12.138;2022-10-16T08:50:39;100501.47;;;24.85;56.36
12182;BME280;6154;51.550;12.138;2022-10-16T08:53:15;100507.28;;;24.74;56.92
12182;BME280;6154;51.550;12.138;2022-10-16T08:55:49;100517.22;;;24.89;56.49
12182;BME280;6154;51.550;12.138;2022-10-16T08:58:19;100525.81;;;24.93;56.44
12182;BME280;6154;51.550;12.138;2022-10-16T09:00:51;100509.06;;;24.98;56.75
12182;BME280;6154;51.550;12.138;2022-10-16T09:03:31;100502.06;;;25.11;56.68
12182;BME280;6154;51.550;12.138;2022-10-16T09:06:13;100513.19;;;25.25;56.26
12182;BME280;6154;51.550;12.138;2022-10-16T09:08:53;100517.06;;;25.30;55.75
12182;BME280;6154;51.550;12.138;2022-10-16T09:11:41;100516.22;;;25.30;55.24
12182;BME280;6154;51.550;12.138;2022-10-16T09:14:29;100525.63;;;25.42;55.23
12182;BME280;6154;51.550;12.138;2022-10-16T09:17:16;100526.97;;;25.46;54.88
12182;BME280;6154;51.550;12.138;2022-10-16T09:19:51;100536.44;;;25.50;54.72
12182;BME280;6154;51.550;12.138;2022-10-16T09:22:25;100539.03;;;25.66;55.53
12182;BME280;6154;51.550;12.138;2022-10-16T09:24:55;100535.56;;;25.81;55.10
12182;BME280;6154;51.550;12.138;2022-10-16T09:27:29;100544.84;;;26.09;55.50
12182;BME280;6154;51.550;12.138;2022-10-16T09:29:57;100546.75;;;26.23;54.22
12182;BME280;6154;51.550;12.138;2022-10-16T09:32:28;100549.03;;;26.34;54.28
12182;BME280;6154;51.550;12.138;2022-10-16T09:34:57;100536.38;;;26.50;53.61
12182;BME280;6154;51.550;12.138;2022-10-16T09:37:25;100537.63;;;26.77;54.33
12182;BME280;6154;51.550;12.138;2022-10-16T09:39:54;100531.72;;;27.03;53.98
12182;BME280;6154;51.550;12.138;2022-10-16T09:42:27;100527.22;;;27.10;52.96
12182;BME280;6154;51.550;12.138;2022-10-16T09:44:59;100547.66;;;27.06;52.39
12182;BME280;6154;51.550;12.138;2022-10-16T09:47:29;100551.19;;;27.21;53.49
12182;BME280;6154;51.550;12.138;2022-10-16T09:49:59;100562.75;;;27.08;52.47
12182;BME280;6154;51.550;12.138;2022-10-16T09:52:30;100565.06;;;27.26;52.73
12182;BME280;6154;51.550;12.138;2022-10-16T09:55:00;100559.22;;;26.70;51.58
12182;BME280;6154;51.550;12.138;2022-10-16T09:57:28;100558.03;;;26.87;53.24
12182;BME280;6154;51.550;12.138;2022-10-16T09:59:59;100550.25;;;26.84;52.62
12182;BME280;6154;51.550;12.138;2022-10-16T10:02:34;100553.34;;;26.81;52.95
12182;BME280;6154;51.550;12.138;2022-10-16T10:05:04;100558.94;;;26.94;52.21
12182;BME280;6154;51.550;12.138;2022-10-16T10:07:39;100563.28;;;27.04;51.77
12182;BME280;6154;51.550;12.138;2022-10-16T10:10:19;100569.47;;;26.98;50.23
12182;BME280;6154;51.550;12.138;2022-10-16T10:12:49;100569.03;;;27.09;49.44
12182;BME280;6154;51.550;12.138;2022-10-16T10:15:24;100575.75;;;27.13;51.93
12182;BME280;6154;51.550;12.138;2022-10-16T10:17:54;100585.56;;;26.99;51.32
12182;BME280;6154;51.550;12.138;2022-10-16T10:20:26;100583.06;;;26.98;52.10
12182;BME280;6154;51.550;12.138;2022-10-16T10:22:54;100593.53;;;27.01;50.92
12182;BME280;6154;51.550;12.138;2022-10-16T10:25:38;100584.72;;;26.99;51.52
12182;BME280;6154;51.550;12.138;2022-10-16T10:31:25;100594.47;;;26.78;49.29
12182;BME280;6154;51.550;12.138;2022-10-16T10:33:59;100597.22;;;26.32;49.28
12182;BME280;6154;51.550;12.138;2022-10-16T10:36:35;100592.81;;;26.54;50.76
12182;BME280;6154;51.550;12.138;2022-10-16T10:39:08;100602.00;;;26.53;50.20
12182;BME280;6154;51.550;12.138;2022-10-16T10:42:02;100597.13;;;26.49;50.90
12182;BME280;6154;51.550;12.138;2022-10-16T10:44:57;100599.28;;;26.53;49.23
12182;BME280;6154;51.550;12.138;2022-10-16T10:47:42;100599.25;;;26.39;48.95
12182;BME280;6154;51.550;12.138;2022-10-16T10:50:19;100597.72;;;26.13;48.65
12182;BME280;6154;51.550;12.138;2022-10-16T10:52:58;100606.13;;;26.26;50.46
12182;BME280;6154;51.550;12.138;2022-10-16T10:55:37;100599.34;;;26.22;50.37
12182;BME280;6154;51.550;12.138;2022-10-16T10:58:26;100604.72;;;26.30;50.15
12182;BME280;6154;51.550;12.138;2022-10-16T11:01:07;100598.41;;;26.38;49.33
12182;BME280;6154;51.550;12.138;2022-10-16T11:03:57;100601.41;;;26.20;50.17
12182;BME280;6154;51.550;12.138;2022-10-16T11:06:50;100600.94;;;26.17;48.82
12182;BME280;6154;51.550;12.138;2022-10-16T11:09:32;100605.75;;;26.06;50.82
12182;BME280;6154;51.550;12.138;2022-10-16T11:12:07;100591.03;;;26.01;50.87
12182;BME280;6154;51.550;12.138;2022-10-16T11:14:43;100595.44;;;26.02;50.11
12182;BME280;6154;51.550;12.138;2022-10-16T11:17:18;100596.69;;;26.14;50.60
12182;BME280;6154;51.550;12.138;2022-10-16T11:19:56;100591.50;;;26.04;49.68
12182;BME280;6154;51.550;12.138;2022-10-16T11:22:31;100595.47;;;25.94;49.79
12182;BME280;6154;51.550;12.138;2022-10-16T11:25:06;100608.53;;;25.98;49.93
12182;BME280;6154;51.550;12.138;2022-10-16T11:27:43;100612.22;;;26.05;50.25
12182;BME280;6154;51.550;12.138;2022-10-16T11:30:16;100610.19;;;26.22;50.77
12182;BME280;6154;51.550;12.138;2022-10-16T11:32:56;100611.22;;;26.21;50.23
12182;BME280;6154;51.550;12.138;2022-10-16T11:35:38;100604.78;;;26.22;49.33
12182;BME280;6154;51.550;12.138;2022-10-16T11:38:14;100615.41;;;26.09;49.73
12182;BME280;6154;51.550;12.138;2022-10-16T11:40:46;100612.25;;;26.20;50.62
12182;BME280;6154;51.550;12.138;2022-10-16T11:43:20;100610.13;;;26.30;50.73
12182;BME280;6154;51.550;12.138;2022-10-16T11:45:52;100611.53;;;26.26;50.43
12182;BME280;6154;51.550;12.138;2022-10-16T11:48:27;100617.56;;;26.14;50.10
12182;BME280;6154;51.550;12.138;2022-10-16T11:51:05;100616.47;;;26.00;50.26
12182;BME280;6154;51.550;12.138;2022-10-16T11:53:44;100611.03;;;26.23;49.97
12182;BME280;6154;51.550;12.138;2022-10-16T11:56:15;100618.78;;;26.11;50.25
12182;BME280;6154;51.550;12.138;2022-10-16T11:58:52;100612.63;;;26.40;50.68
12182;BME280;6154;51.550;12.138;2022-10-16T12:01:29;100613.69;;;26.54;50.15
12182;BME280;6154;51.550;12.138;2022-10-16T12:04:16;100610.63;;;26.57;49.47
12182;BME280;6154;51.550;12.138;2022-10-16T12:06:52;100621.94;;;26.46;49.06
12182;BME280;6154;51.550;12.138;2022-10-16T12:09:26;100623.09;;;26.66;49.66
12182;BME280;6154;51.550;12.138;2022-10-16T12:11:55;100621.00;;;26.53;50.31
12182;BME280;6154;51.550;12.138;2022-10-16T12:14:36;100628.88;;;26.48;50.34
12182;BME280;6154;51.550;12.138;2022-10-16T12:17:26;100616.06;;;26.11;49.34
12182;BME280;6154;51.550;12.138;2022-10-16T12:20:00;100622.50;;;26.10;50.34
12182;BME280;6154;51.550;12.138;2022-10-16T12:22:31;100624.84;;;25.90;49.99
12182;BME280;6154;51.550;12.138;2022-10-16T12:25:17;100622.19;;;26.05;50.34
12182;BME280;6154;51.550;12.138;2022-10-16T12:27:54;100616.94;;;25.81;50.45
12182;BME280;6154;51.550;12.138;2022-10-16T12:30:24;100614.19;;;25.89;50.06
12182;BME280;6154;51.550;12.138;2022-10-16T12:33:00;100610.94;;;25.54;50.64
12182;BME280;6154;51.550;12.138;2022-10-16T12:35:32;100615.97;;;25.65;50.57
12182;BME280;6154;51.550;12.138;2022-10-16T12:38:07;100622.34;;;25.81;50.53
12182;BME280;6154;51.550;12.138;2022-10-16T12:40:43;100609.72;;;25.96;50.46
12182;BME280;6154;51.550;12.138;2022-10-16T12:43:25;100617.69;;;26.20;50.50
12182;BME280;6154;51.550;12.138;2022-10-16T12:46:01;100618.28;;;26.30;49.40
12182;BME280;6154;51.550;12.138;2022-10-16T12:48:30;100624.28;;;26.49;49.06
12182;BME280;6154;51.550;12.138;2022-10-16T12:51:25;100614.84;;;26.74;49.86
12182;BME280;6154;51.550;12.138;2022-10-16T12:54:03;100619.53;;;26.65;48.56
12182;BME280;6154;51.550;12.138;2022-10-16T12:56:41;100621.03;;;26.68;48.29
12182;BME280;6154;51.550;12.138;2022-10-16T12:59:21;100621.75;;;27.00;48.97
12182;BME280;6154;51.550;12.138;2022-10-16T13:02:08;100625.84;;;26.96;47.80
12182;BME280;6154;51.550;12.138;2022-10-16T13:04:53;100624.88;;;27.26;48.46
12182;BME280;6154;51.550;12.138;2022-10-16T13:07:38;100623.34;;;27.38;48.02
12182;BME280;6154;51.550;12.138;2022-10-16T13:10:17;100632.25;;;27.47;47.89
12182;BME280;6154;51.550;12.138;2022-10-16T13:15:57;100626.09;;;27.09;46.40
12182;BME280;6154;51.550;12.138;2022-10-16T13:18:40;100624.66;;;27.42;46.46
12182;BME280;6154;51.550;12.138;2022-10-16T13:21:20;100622.22;;;27.47;47.55
12182;BME280;6154;51.550;12.138;2022-10-16T13:23:59;100633.09;;;27.47;47.49
12182;BME280;6154;51.550;12.138;2022-10-16T13:26:39;100631.88;;;27.35;46.77